Time;durP1;ratioP1;P1;durP2;ratioP2;P2;SDS_P1;SDS_P2;PMS_P1;PMS_P2;Temp;Humidity;BMP_temperature;BMP_pressure;BME280_temperature;BME280_humidity;BME280_pressure;Samples;Min_cycle;Max_cycle;Signal;HPM_P1;HPM_P2
2023/10/26 00:01:19;;;;;;;43.87;40.17;;;;;;;;;;5075806;28;20459;-85
2023/10/26 00:03:46;;;;;;;48.40;43.40;;;;;;;;;;5073336;28;20431;-85
2023/10/26 00:06:13;;;;;;;48.07;43.97;;;;;;;;;;5059976;28;20474;-84
2023/10/26 00:08:40;;;;;;;50.60;45.53;;;;;;;;;;5060730;28;20465;-85
2023/10/26 00:11:08;;;;;;;51.87;46.77;;;;;;;;;;5060799;28;20459;-85
2023/10/26 00:13:35;;;;;;;53.60;47.93;;;;;;;;;;5060634;28;20435;-85
2023/10/26 00:16:03;;;;;;;55.10;49.50;;;;;;;;;;5059437;28;20447;-86
2023/10/26 00:18:30;;;;;;;51.83;46.33;;;;;;;;;;5060153;28;20481;-85
2023/10/26 00:20:57;;;;;;;43.57;39.97;;;;;;;;;;5060281;28;20439;-85
2023/10/26 00:23:24;;;;;;;49.30;44.83;;;;;;;;;;5060382;28;20435;-85
2023/10/26 00:25:51;;;;;;;51.10;46.20;;;;;;;;;;5059808;28;20459;-85
2023/10/26 00:28:20;;;;;;;52.47;46.77;;;;;;;;;;5060624;28;20485;-85
2023/10/26 00:30:47;;;;;;;52.07;46.63;;;;;;;;;;5060498;28;20845;-85
2023/10/26 00:33:14;;;;;;;53.87;48.50;;;;;;;;;;5060122;28;20519;-85
2023/10/26 00:35:41;;;;;;;48.60;43.50;;;;;;;;;;5059366;28;20939;-86
2023/10/26 00:38:08;;;;;;;54.63;48.10;;;;;;;;;;5059353;28;20502;-85
2023/10/26 00:40:35;;;;;;;49.73;44.73;;;;;;;;;;5059334;28;20482;-85
2023/10/26 00:43:04;;;;;;;43.43;39.80;;;;;;;;;;5060361;28;20473;-85
2023/10/26 00:45:35;;;;;;;46.53;42.13;;;;;;;;;;5059172;28;20459;-85
2023/10/26 00:48:02;;;;;;;48.80;44.70;;;;;;;;;;5059005;28;20494;-86
2023/10/26 00:50:29;;;;;;;47.23;42.40;;;;;;;;;;5059921;28;21081;-85
2023/10/26 00:52:57;;;;;;;46.73;42.30;;;;;;;;;;5060256;28;20439;-85
2023/10/26 00:55:26;;;;;;;49.70;43.90;;;;;;;;;;5059306;28;20454;-85
2023/10/26 00:57:53;;;;;;;47.43;43.07;;;;;;;;;;5058839;28;20503;-85
2023/10/26 01:00:21;;;;;;;46.57;42.10;;;;;;;;;;5059672;28;20451;-86
2023/10/26 01:02:49;;;;;;;42.47;38.53;;;;;;;;;;5059220;28;20454;-86
2023/10/26 01:05:16;;;;;;;43.90;39.90;;;;;;;;;;5059518;28;20446;-85
2023/10/26 01:07:43;;;;;;;47.30;42.53;;;;;;;;;;5058715;28;20490;-85
2023/10/26 01:10:11;;;;;;;44.43;40.33;;;;;;;;;;5059749;28;20450;-86
2023/10/26 01:12:38;;;;;;;45.77;41.27;;;;;;;;;;5058772;28;20458;-85
2023/10/26 01:15:07;;;;;;;45.30;40.73;;;;;;;;;;5058345;28;20463;-86
2023/10/26 01:17:35;;;;;;;46.20;41.40;;;;;;;;;;5058585;28;20502;-85
2023/10/26 01:20:05;;;;;;;46.70;42.17;;;;;;;;;;5058900;28;20474;-85
2023/10/26 01:22:34;;;;;;;42.57;38.67;;;;;;;;;;5058928;28;20514;-85
2023/10/26 01:25:01;;;;;;;44.07;39.60;;;;;;;;;;5059254;28;20558;-85
2023/10/26 01:27:28;;;;;;;43.37;38.93;;;;;;;;;;5058933;28;20467;-85
2023/10/26 01:29:56;;;;;;;47.73;40.43;;;;;;;;;;5059106;28;20425;-85
2023/10/26 01:32:23;;;;;;;49.17;40.73;;;;;;;;;;5059172;28;20486;-85
2023/10/26 01:34:50;;;;;;;49.80;41.50;;;;;;;;;;5058366;28;20528;-85
2023/10/26 01:37:17;;;;;;;45.90;41.30;;;;;;;;;;5058171;28;20490;-85
2023/10/26 01:39:46;;;;;;;49.77;43.50;;;;;;;;;;5058519;28;20473;-85
2023/10/26 01:42:13;;;;;;;45.73;40.00;;;;;;;;;;5058811;28;20446;-86
2023/10/26 01:44:40;;;;;;;37.27;34.27;;;;;;;;;;5058235;28;20431;-85
2023/10/26 01:47:07;;;;;;;46.03;41.13;;;;;;;;;;5059281;28;20471;-85
2023/10/26 01:49:34;;;;;;;48.93;41.20;;;;;;;;;;5058687;28;20464;-86
2023/10/26 01:52:01;;;;;;;41.60;37.83;;;;;;;;;;5059324;28;20439;-85
2023/10/26 01:54:28;;;;;;;47.40;42.70;;;;;;;;;;5058557;28;20451;-84
2023/10/26 01:56:58;;;;;;;46.00;41.20;;;;;;;;;;5059184;28;20489;-86
2023/10/26 01:59:26;;;;;;;43.10;39.33;;;;;;;;;;5057882;28;20478;-85
2023/10/26 02:01:53;;;;;;;45.23;41.07;;;;;;;;;;5058319;28;21162;-85
2023/10/26 02:04:20;;;;;;;43.87;39.90;;;;;;;;;;5058030;28;20446;-85
2023/10/26 02:06:47;;;;;;;39.53;36.40;;;;;;;;;;5058477;28;20458;-85
2023/10/26 02:09:14;;;;;;;40.87;37.33;;;;;;;;;;5058028;28;20834;-85
2023/10/26 02:11:41;;;;;;;37.07;34.13;;;;;;;;;;5058331;28;20541;-85
2023/10/26 02:14:09;;;;;;;37.90;34.83;;;;;;;;;;5057495;28;20454;-84
2023/10/26 02:16:36;;;;;;;34.17;31.27;;;;;;;;;;5058052;28;20454;-85
2023/10/26 02:19:03;;;;;;;39.00;35.80;;;;;;;;;;5058269;28;20493;-87
2023/10/26 02:21:31;;;;;;;40.40;37.13;;;;;;;;;;5057820;28;20891;-85
2023/10/26 02:23:58;;;;;;;38.60;35.37;;;;;;;;;;5057769;28;20450;-85
2023/10/26 02:26:25;;;;;;;43.17;39.47;;;;;;;;;;5058042;28;20446;-85
2023/10/26 02:28:52;;;;;;;42.27;38.57;;;;;;;;;;5058396;28;20439;-85
2023/10/26 02:31:20;;;;;;;41.30;37.83;;;;;;;;;;5057685;28;20478;-85
2023/10/26 02:33:47;;;;;;;42.50;38.90;;;;;;;;;;5057291;28;20454;-85
2023/10/26 02:36:14;;;;;;;41.67;38.30;;;;;;;;;;5057995;28;20454;-85
2023/10/26 02:38:42;;;;;;;43.67;39.90;;;;;;;;;;5058432;28;20490;-85
2023/10/26 02:41:09;;;;;;;41.47;37.77;;;;;;;;;;5057673;28;20974;-85
2023/10/26 02:43:36;;;;;;;43.53;39.90;;;;;;;;;;5058471;28;20917;-85
2023/10/26 02:46:04;;;;;;;44.00;40.33;;;;;;;;;;5057734;28;20442;-85
2023/10/26 02:48:33;;;;;;;42.20;38.23;;;;;;;;;;5057940;28;20455;-85
2023/10/26 02:51:00;;;;;;;36.03;33.07;;;;;;;;;;5057198;28;20458;-85
2023/10/26 02:53:27;;;;;;;40.57;37.10;;;;;;;;;;5057685;28;20435;-85
2023/10/26 02:55:54;;;;;;;42.10;38.40;;;;;;;;;;5058659;28;20455;-85
2023/10/26 02:58:21;;;;;;;40.97;37.77;;;;;;;;;;5060956;28;20835;-86
2023/10/26 03:00:48;;;;;;;42.50;38.70;;;;;;;;;;5061119;28;20448;-84
2023/10/26 03:03:15;;;;;;;38.90;35.90;;;;;;;;;;5061451;28;20425;-86
2023/10/26 03:05:44;;;;;;;39.43;36.13;;;;;;;;;;5060721;28;20450;-85
2023/10/26 03:08:11;;;;;;;45.17;41.20;;;;;;;;;;5061737;28;20886;-85
2023/10/26 03:10:39;;;;;;;41.33;37.80;;;;;;;;;;5061068;28;20462;-84
2023/10/26 03:13:06;;;;;;;43.87;40.07;;;;;;;;;;5060705;28;20441;-85
2023/10/26 03:15:33;;;;;;;43.07;39.50;;;;;;;;;;5060761;28;20473;-85
2023/10/26 03:18:00;;;;;;;39.17;35.90;;;;;;;;;;5060887;28;20502;-85
2023/10/26 03:20:27;;;;;;;43.53;39.90;;;;;;;;;;5060965;28;20443;-85
2023/10/26 03:22:55;;;;;;;46.33;42.03;;;;;;;;;;5060748;28;20482;-85
2023/10/26 03:25:22;;;;;;;35.40;33.00;;;;;;;;;;5060032;28;20458;-85
2023/10/26 03:27:49;;;;;;;40.10;37.40;;;;;;;;;;5060549;28;20465;-85
2023/10/26 03:30:17;;;;;;;43.33;39.93;;;;;;;;;;5060581;28;20446;-85
2023/10/26 03:32:44;;;;;;;44.80;41.10;;;;;;;;;;5060242;28;20504;-85
2023/10/26 03:35:12;;;;;;;42.40;38.80;;;;;;;;;;5059914;28;20993;-85
2023/10/26 03:37:39;;;;;;;37.13;34.63;;;;;;;;;;5059806;28;20493;-85
2023/10/26 03:40:08;;;;;;;41.93;38.70;;;;;;;;;;5060154;28;20459;-85
2023/10/26 03:42:35;;;;;;;40.40;37.60;;;;;;;;;;5060094;28;20911;-85
2023/10/26 03:45:02;;;;;;;43.20;40.10;;;;;;;;;;5059740;28;20451;-85
2023/10/26 03:47:29;;;;;;;43.23;39.90;;;;;;;;;;5060398;28;20932;-86
2023/10/26 03:49:56;;;;;;;44.27;40.60;;;;;;;;;;5060177;28;20504;-85
2023/10/26 03:52:23;;;;;;;38.00;35.50;;;;;;;;;;5060147;28;20452;-85
2023/10/26 03:54:50;;;;;;;41.77;38.37;;;;;;;;;;5059803;28;20978;-85
2023/10/26 03:57:19;;;;;;;38.87;36.47;;;;;;;;;;5060423;28;20475;-85
2023/10/26 03:59:46;;;;;;;44.40;41.03;;;;;;;;;;5060620;28;20443;-84
2023/10/26 04:02:13;;;;;;;41.40;37.93;;;;;;;;;;5060542;28;20456;-84
2023/10/26 04:04:42;;;;;;;44.13;40.33;;;;;;;;;;5078369;28;20468;-85
2023/10/26 04:07:09;;;;;;;46.63;42.70;;;;;;;;;;5074724;28;20478;-85
2023/10/26 04:09:36;;;;;;;47.43;42.93;;;;;;;;;;5080355;28;20433;-85
2023/10/26 04:12:03;;;;;;;44.13;40.83;;;;;;;;;;5079996;28;20453;-86
2023/10/26 04:14:33;;;;;;;45.93;42.03;;;;;;;;;;5079454;28;20465;-85
2023/10/26 04:17:00;;;;;;;41.97;38.97;;;;;;;;;;5080683;28;20957;-85
2023/10/26 04:19:27;;;;;;;46.50;42.90;;;;;;;;;;5079674;28;20495;-85
2023/10/26 04:21:54;;;;;;;48.73;44.53;;;;;;;;;;5079963;28;20813;-85
2023/10/26 04:24:21;;;;;;;46.87;43.13;;;;;;;;;;5078987;28;20466;-85
2023/10/26 04:26:49;;;;;;;46.33;42.43;;;;;;;;;;5079697;28;20489;-85
2023/10/26 04:29:17;;;;;;;49.43;44.70;;;;;;;;;;5079179;28;20408;-85
2023/10/26 04:31:45;;;;;;;49.37;44.87;;;;;;;;;;5079547;28;20587;-85
2023/10/26 04:34:12;;;;;;;48.27;44.07;;;;;;;;;;5078655;28;20446;-85
2023/10/26 04:36:39;;;;;;;48.27;43.93;;;;;;;;;;5079224;28;20958;-85
2023/10/26 04:39:08;;;;;;;49.27;44.70;;;;;;;;;;5079585;28;20459;-85
2023/10/26 04:41:35;;;;;;;48.30;44.30;;;;;;;;;;5078716;28;20483;-85
2023/10/26 04:44:04;;;;;;;47.63;43.63;;;;;;;;;;5079133;28;20442;-85
2023/10/26 04:46:31;;;;;;;47.63;43.47;;;;;;;;;;5078927;28;20473;-85
2023/10/26 04:49:00;;;;;;;47.23;43.17;;;;;;;;;;5079368;28;20921;-84
2023/10/26 04:51:28;;;;;;;49.43;45.40;;;;;;;;;;5078618;28;20775;-85
2023/10/26 04:53:55;;;;;;;47.50;43.70;;;;;;;;;;5078434;28;20449;-85
2023/10/26 04:56:22;;;;;;;49.13;45.17;;;;;;;;;;5078780;28;20449;-84
2023/10/26 04:58:50;;;;;;;51.80;47.10;;;;;;;;;;5078612;28;20481;-85
2023/10/26 05:01:17;;;;;;;47.40;43.40;;;;;;;;;;5078355;28;20481;-86
2023/10/26 05:03:44;;;;;;;48.73;44.63;;;;;;;;;;5078290;28;20454;-86
2023/10/26 05:06:12;;;;;;;43.33;40.13;;;;;;;;;;5078621;28;20446;-86
2023/10/26 05:08:39;;;;;;;45.23;41.80;;;;;;;;;;5079286;28;20473;-85
2023/10/26 05:11:06;;;;;;;43.40;40.00;;;;;;;;;;5078747;28;20463;-85
2023/10/26 05:13:33;;;;;;;50.97;46.60;;;;;;;;;;5078616;28;20412;-85
2023/10/26 05:16:01;;;;;;;49.47;45.23;;;;;;;;;;5078953;28;20445;-85
2023/10/26 05:18:28;;;;;;;50.87;46.70;;;;;;;;;;5077885;28;20481;-85
2023/10/26 05:20:56;;;;;;;51.40;47.20;;;;;;;;;;5079102;28;20440;-85
2023/10/26 05:23:24;;;;;;;43.20;40.27;;;;;;;;;;5078463;28;20469;-85
2023/10/26 05:25:51;;;;;;;48.57;44.37;;;;;;;;;;5078408;28;20449;-85
2023/10/26 05:28:18;;;;;;;53.23;48.37;;;;;;;;;;5078726;28;20472;-85
2023/10/26 05:30:45;;;;;;;52.77;48.60;;;;;;;;;;5079166;28;20445;-85
2023/10/26 05:33:12;;;;;;;50.47;46.23;;;;;;;;;;5074983;28;20451;-84
2023/10/26 05:35:39;;;;;;;53.07;48.00;;;;;;;;;;5078322;28;20413;-84
2023/10/26 05:38:09;;;;;;;49.40;45.23;;;;;;;;;;5078013;28;20490;-85
2023/10/26 05:40:37;;;;;;;53.03;48.03;;;;;;;;;;5079057;28;20431;-85
2023/10/26 05:43:04;;;;;;;53.63;48.67;;;;;;;;;;5078196;28;20496;-85
2023/10/26 05:45:37;;;;;;;51.47;46.53;;;;;;;;;;5077607;28;20922;-85
2023/10/26 05:48:05;;;;;;;54.73;49.87;;;;;;;;;;5077343;28;20490;-85
2023/10/26 05:50:32;;;;;;;50.23;45.87;;;;;;;;;;5058342;28;20925;-85
2023/10/26 05:52:59;;;;;;;52.33;48.03;;;;;;;;;;5058865;28;20531;-84
2023/10/26 05:55:26;;;;;;;49.93;46.07;;;;;;;;;;5058645;28;20455;-85
2023/10/26 05:57:55;;;;;;;52.23;47.83;;;;;;;;;;5057951;28;20463;-85
2023/10/26 06:00:22;;;;;;;49.83;45.93;;;;;;;;;;5058433;28;20962;-84
2023/10/26 06:02:49;;;;;;;51.77;47.20;;;;;;;;;;5068360;28;20465;-85
2023/10/26 06:05:16;;;;;;;51.60;47.30;;;;;;;;;;5077637;28;20472;-85
2023/10/26 06:07:43;;;;;;;49.30;45.47;;;;;;;;;;5078187;28;20462;-83
2023/10/26 06:10:11;;;;;;;47.17;43.70;;;;;;;;;;5078112;28;20449;-85
2023/10/26 06:12:39;;;;;;;47.67;44.17;;;;;;;;;;5078828;28;20511;-84
2023/10/26 06:15:10;;;;;;;47.77;44.23;;;;;;;;;;5077590;28;20478;-84
2023/10/26 06:17:37;;;;;;;47.50;43.70;;;;;;;;;;5078564;28;20462;-84
2023/10/26 06:20:04;;;;;;;48.97;45.37;;;;;;;;;;5078326;28;20492;-85
2023/10/26 06:22:31;;;;;;;44.73;41.43;;;;;;;;;;5078672;28;20412;-85
2023/10/26 06:24:58;;;;;;;46.33;43.00;;;;;;;;;;5077364;28;20459;-85
2023/10/26 06:27:36;;;;;;;46.73;43.63;;;;;;;;;;5078160;28;20527;-85
2023/10/26 06:30:04;;;;;;;45.60;42.43;;;;;;;;;;5078961;28;20421;-85
2023/10/26 06:32:33;;;;;;;42.03;39.23;;;;;;;;;;5082584;28;20491;-84
2023/10/26 06:35:00;;;;;;;41.30;38.70;;;;;;;;;;5080655;28;20458;-85
2023/10/26 06:37:28;;;;;;;45.03;42.17;;;;;;;;;;5081543;28;20432;-85
2023/10/26 06:39:55;;;;;;;45.33;41.80;;;;;;;;;;5082454;28;20512;-85
2023/10/26 06:42:22;;;;;;;42.63;39.73;;;;;;;;;;5081535;28;20432;-86
2023/10/26 06:44:49;;;;;;;45.27;42.10;;;;;;;;;;5080851;28;20812;-86
2023/10/26 06:47:16;;;;;;;44.37;41.87;;;;;;;;;;5073646;28;20477;-86
2023/10/26 06:49:44;;;;;;;51.17;48.27;;;;;;;;;;5061700;28;20453;-85
2023/10/26 06:52:11;;;;;;;52.53;49.33;;;;;;;;;;5061503;28;20442;-86
2023/10/26 06:54:38;;;;;;;52.47;49.43;;;;;;;;;;5061085;28;20457;-86
2023/10/26 06:57:06;;;;;;;54.60;51.50;;;;;;;;;;5061569;28;20449;-86
2023/10/26 06:59:33;;;;;;;51.23;48.20;;;;;;;;;;5060899;28;20826;-86
2023/10/26 07:02:00;;;;;;;52.57;49.23;;;;;;;;;;5062070;28;20462;-86
2023/10/26 07:04:27;;;;;;;52.57;49.57;;;;;;;;;;5061275;28;20473;-86
2023/10/26 07:06:55;;;;;;;53.57;50.40;;;;;;;;;;5061641;28;20470;-87
2023/10/26 07:09:22;;;;;;;51.13;48.33;;;;;;;;;;5061374;28;20923;-86
2023/10/26 07:11:50;;;;;;;49.20;46.47;;;;;;;;;;5061691;28;20465;-87
2023/10/26 07:14:17;;;;;;;50.93;48.13;;;;;;;;;;5060364;28;20443;-87
2023/10/26 07:16:44;;;;;;;50.97;47.83;;;;;;;;;;5061100;28;20466;-86
2023/10/26 07:19:11;;;;;;;52.13;49.07;;;;;;;;;;5060658;28;20505;-85
2023/10/26 07:21:38;;;;;;;51.30;48.00;;;;;;;;;;5062225;28;20434;-86
2023/10/26 07:24:07;;;;;;;53.70;50.30;;;;;;;;;;5060561;28;20462;-86
2023/10/26 07:26:34;;;;;;;54.20;50.90;;;;;;;;;;5061452;28;20451;-85
2023/10/26 07:29:01;;;;;;;51.27;48.20;;;;;;;;;;5061181;28;20438;-86
2023/10/26 07:31:28;;;;;;;50.30;47.33;;;;;;;;;;5061580;28;20447;-86
2023/10/26 07:33:55;;;;;;;52.10;48.90;;;;;;;;;;5061015;28;20425;-84
2023/10/26 07:36:25;;;;;;;55.60;51.97;;;;;;;;;;5062297;28;20454;-85
2023/10/26 07:38:52;;;;;;;57.40;53.63;;;;;;;;;;5062371;28;20482;-85
2023/10/26 07:41:25;;;;;;;50.03;47.03;;;;;;;;;;5061155;28;20447;-80
2023/10/26 07:43:52;;;;;;;48.43;45.63;;;;;;;;;;5061118;28;20474;-85
2023/10/26 07:46:21;;;;;;;47.43;44.53;;;;;;;;;;5069437;28;20454;-83
2023/10/26 07:48:48;;;;;;;49.23;46.23;;;;;;;;;;5079588;28;20458;-84
2023/10/26 07:51:15;;;;;;;49.27;46.37;;;;;;;;;;5080939;28;20449;-82
2023/10/26 07:53:42;;;;;;;47.20;44.20;;;;;;;;;;5062869;28;20433;-84
2023/10/26 07:56:09;;;;;;;49.40;46.40;;;;;;;;;;5061195;28;20458;-85
2023/10/26 07:58:37;;;;;;;49.90;46.80;;;;;;;;;;5058220;28;20548;-84
2023/10/26 08:01:08;;;;;;;48.27;45.60;;;;;;;;;;5059602;28;20466;-85
2023/10/26 08:03:35;;;;;;;45.90;43.40;;;;;;;;;;5059078;28;20443;-85
2023/10/26 08:06:03;;;;;;;47.37;44.33;;;;;;;;;;5059588;28;20432;-85
2023/10/26 08:08:30;;;;;;;46.77;44.07;;;;;;;;;;5059229;28;20482;-85
2023/10/26 08:10:57;;;;;;;48.07;45.47;;;;;;;;;;5059461;28;20463;-84
2023/10/26 08:13:24;;;;;;;47.33;44.60;;;;;;;;;;5059787;28;20453;-85
2023/10/26 08:15:53;;;;;;;45.43;43.03;;;;;;;;;;5059331;28;20447;-85
2023/10/26 08:18:20;;;;;;;45.27;42.80;;;;;;;;;;5059790;28;20466;-84
2023/10/26 08:20:51;;;;;;;45.00;42.60;;;;;;;;;;5059007;28;20510;-84
2023/10/26 08:23:18;;;;;;;44.27;41.87;;;;;;;;;;5059441;28;20442;-84
2023/10/26 08:25:45;;;;;;;44.40;41.77;;;;;;;;;;5058383;28;20449;-84
2023/10/26 08:28:12;;;;;;;42.13;39.83;;;;;;;;;;5059013;28;20479;-84
2023/10/26 08:30:39;;;;;;;45.10;42.60;;;;;;;;;;5059474;28;20446;-84
2023/10/26 08:33:08;;;;;;;43.17;40.87;;;;;;;;;;5059164;28;20457;-85
2023/10/26 08:35:35;;;;;;;44.73;42.13;;;;;;;;;;5057929;28;20850;-85
2023/10/26 08:38:02;;;;;;;42.27;39.97;;;;;;;;;;5059242;28;20474;-84
2023/10/26 08:40:30;;;;;;;40.87;38.63;;;;;;;;;;5059015;28;20445;-84
2023/10/26 08:42:57;;;;;;;43.23;40.93;;;;;;;;;;5059103;28;20439;-85
2023/10/26 08:45:27;;;;;;;41.90;39.70;;;;;;;;;;5058980;28;20459;-84
2023/10/26 08:47:54;;;;;;;41.97;39.77;;;;;;;;;;5059324;28;20505;-84
2023/10/26 08:50:24;;;;;;;45.07;42.43;;;;;;;;;;5059371;28;20442;-86
2023/10/26 08:52:51;;;;;;;43.00;40.83;;;;;;;;;;5059109;28;20458;-85
2023/10/26 08:55:18;;;;;;;42.97;40.23;;;;;;;;;;5058262;28;20450;-84
2023/10/26 08:57:50;;;;;;;41.43;38.93;;;;;;;;;;5058554;28;20478;-84
2023/10/26 09:00:17;;;;;;;41.30;38.93;;;;;;;;;;5058310;28;20509;-83
2023/10/26 09:02:44;;;;;;;42.63;40.27;;;;;;;;;;5058822;28;20458;-85
2023/10/26 09:05:12;;;;;;;42.07;39.67;;;;;;;;;;5058162;28;20457;-85
2023/10/26 09:07:40;;;;;;;44.50;41.90;;;;;;;;;;5057773;28;21049;-85
2023/10/26 09:10:08;;;;;;;43.17;40.77;;;;;;;;;;5058416;28;20931;-84
2023/10/26 09:12:35;;;;;;;39.97;37.87;;;;;;;;;;5058986;28;20446;-85
2023/10/26 09:15:03;;;;;;;40.63;38.40;;;;;;;;;;5057628;28;20442;-85
2023/10/26 09:17:31;;;;;;;40.03;37.90;;;;;;;;;;5057968;28;20493;-85
2023/10/26 09:19:58;;;;;;;39.60;37.40;;;;;;;;;;5058513;28;20509;-84
2023/10/26 09:22:39;;;;;;;39.70;37.60;;;;;;;;;;5058202;28;20471;-84
2023/10/26 09:25:11;;;;;;;37.80;35.60;;;;;;;;;;5057038;28;20934;-84
2023/10/26 09:27:38;;;;;;;38.10;35.97;;;;;;;;;;5057214;28;20513;-85
2023/10/26 09:30:06;;;;;;;37.87;35.73;;;;;;;;;;5057608;28;20447;-84
2023/10/26 09:32:33;;;;;;;34.83;33.03;;;;;;;;;;5058078;28;20477;-83
2023/10/26 09:35:01;;;;;;;36.33;33.27;;;;;;;;;;5057183;28;20454;-86
2023/10/26 09:37:28;;;;;;;34.07;32.17;;;;;;;;;;5057256;28;20993;-84
2023/10/26 09:39:56;;;;;;;33.53;31.63;;;;;;;;;;5057138;28;20486;-83
2023/10/26 09:42:25;;;;;;;32.30;30.40;;;;;;;;;;5058095;28;20435;-85
2023/10/26 09:44:52;;;;;;;35.03;32.90;;;;;;;;;;5057491;28;20458;-84
2023/10/26 09:47:20;;;;;;;42.07;39.20;;;;;;;;;;5057220;28;20870;-83
2023/10/26 09:49:47;;;;;;;38.90;36.60;;;;;;;;;;5056575;28;20447;-84
2023/10/26 09:52:14;;;;;;;36.23;33.93;;;;;;;;;;5056458;28;20535;-82
2023/10/26 09:54:42;;;;;;;33.50;31.43;;;;;;;;;;5056892;28;20470;-84
2023/10/26 09:57:12;;;;;;;33.10;31.20;;;;;;;;;;5057469;28;20470;-84
2023/10/26 09:59:40;;;;;;;34.73;32.73;;;;;;;;;;5058102;28;20516;-86
2023/10/26 10:02:13;;;;;;;34.30;32.37;;;;;;;;;;5057337;28;20931;-84
2023/10/26 10:04:40;;;;;;;34.67;32.57;;;;;;;;;;5057187;28;20482;-84
2023/10/26 10:07:08;;;;;;;34.60;32.60;;;;;;;;;;5061939;28;20490;-86
2023/10/26 10:09:55;;;;;;;34.53;32.33;;;;;;;;;;5062959;28;20438;-84
2023/10/26 10:12:35;;;;;;;33.40;31.50;;;;;;;;;;5061914;28;20508;-85
2023/10/26 10:15:06;;;;;;;35.43;33.23;;;;;;;;;;5071551;28;20479;-84
2023/10/26 10:17:51;;;;;;;35.37;33.27;;;;;;;;;;5080945;28;20465;-84
2023/10/26 10:20:28;;;;;;;36.07;33.97;;;;;;;;;;5082260;28;20485;-85
2023/10/26 10:22:58;;;;;;;35.03;32.83;;;;;;;;;;5082508;28;20476;-84
2023/10/26 10:25:45;;;;;;;32.50;30.60;;;;;;;;;;5081118;28;20915;-84
2023/10/26 10:28:12;;;;;;;35.63;33.43;;;;;;;;;;5081679;28;20876;-84
2023/10/26 10:30:55;;;;;;;34.43;32.43;;;;;;;;;;5077364;28;20542;-78
2023/10/26 10:33:23;;;;;;;34.30;32.40;;;;;;;;;;5067208;28;20449;-78
2023/10/26 10:35:53;;;;;;;33.27;31.37;;;;;;;;;;5073109;28;20507;-77
2023/10/26 10:38:24;;;;;;;34.43;32.43;;;;;;;;;;5072524;28;20464;-78
2023/10/26 10:41:09;;;;;;;32.77;30.77;;;;;;;;;;5052887;28;21240;-79
2023/10/26 10:43:37;;;;;;;34.20;32.00;;;;;;;;;;5069465;28;20457;-82
2023/10/26 10:46:16;;;;;;;35.33;33.17;;;;;;;;;;5077891;28;20454;-81
2023/10/26 10:48:56;;;;;;;34.33;32.23;;;;;;;;;;5078781;28;21057;-81
2023/10/26 10:51:23;;;;;;;35.90;33.60;;;;;;;;;;5079611;28;20948;-80
2023/10/26 10:53:51;;;;;;;32.97;31.17;;;;;;;;;;5070680;28;20801;-81
2023/10/26 10:56:18;;;;;;;34.13;32.13;;;;;;;;;;5059463;28;20446;-82
2023/10/26 10:58:45;;;;;;;31.60;29.80;;;;;;;;;;5057912;28;20496;-82
2023/10/26 11:01:20;;;;;;;34.20;32.30;;;;;;;;;;5055922;28;20494;-81
2023/10/26 11:03:47;;;;;;;33.83;31.80;;;;;;;;;;5056814;28;20478;-81
2023/10/26 11:06:15;;;;;;;33.40;31.50;;;;;;;;;;5058248;28;20860;-80
2023/10/26 11:08:42;;;;;;;33.77;31.80;;;;;;;;;;5058756;28;20473;-81
2023/10/26 11:11:09;;;;;;;34.50;32.53;;;;;;;;;;5057504;28;20474;-80
2023/10/26 11:13:36;;;;;;;34.13;32.03;;;;;;;;;;5058341;28;20449;-81
2023/10/26 11:16:03;;;;;;;33.13;31.20;;;;;;;;;;5057574;28;20481;-80
2023/10/26 11:18:32;;;;;;;35.73;33.50;;;;;;;;;;5055216;28;20481;-76
2023/10/26 11:21:01;;;;;;;38.83;36.50;;;;;;;;;;5063772;28;20487;-78
2023/10/26 11:23:28;;;;;;;39.07;36.83;;;;;;;;;;5052133;28;21271;-78
2023/10/26 11:25:55;;;;;;;36.13;34.03;;;;;;;;;;5051905;28;20957;-78
2023/10/26 11:28:34;;;;;;;55.20;50.80;;;;;;;;;;5054023;28;20458;-78
2023/10/26 11:31:01;;;;;;;79.20;72.00;;;;;;;;;;5053310;28;20447;-79
2023/10/26 11:33:34;;;;;;;36.90;34.60;;;;;;;;;;5060132;28;20457;-78
2023/10/26 11:36:01;;;;;;;41.80;39.10;;;;;;;;;;5053791;28;20430;-80
2023/10/26 11:38:28;;;;;;;36.43;34.33;;;;;;;;;;5053568;28;20877;-79
2023/10/26 11:40:55;;;;;;;34.23;32.40;;;;;;;;;;5053560;28;20482;-79
2023/10/26 11:43:32;;;;;;;67.73;62.83;;;;;;;;;;5053300;28;20478;-79
2023/10/26 11:46:00;;;;;;;45.57;42.67;;;;;;;;;;5053747;28;20453;-79
2023/10/26 11:48:29;;;;;;;31.40;29.70;;;;;;;;;;5055155;28;20462;-77
2023/10/26 11:50:57;;;;;;;33.20;31.30;;;;;;;;;;5052427;28;20791;-77
2023/10/26 11:53:26;;;;;;;34.07;32.17;;;;;;;;;;5052278;28;20458;-77
2023/10/26 11:55:53;;;;;;;34.13;32.13;;;;;;;;;;5051703;28;20454;-78
2023/10/26 11:58:20;;;;;;;33.97;32.03;;;;;;;;;;5052145;28;20471;-77
2023/10/26 12:00:47;;;;;;;29.50;27.90;;;;;;;;;;5051776;28;20467;-76
2023/10/26 12:03:14;;;;;;;29.10;27.50;;;;;;;;;;5051618;28;20799;-77
2023/10/26 12:05:41;;;;;;;30.63;28.83;;;;;;;;;;5051002;28;20423;-77
2023/10/26 12:08:10;;;;;;;29.63;28.03;;;;;;;;;;5051648;28;20470;-78
2023/10/26 12:10:39;;;;;;;32.67;30.77;;;;;;;;;;5051164;28;20493;-78
2023/10/26 12:13:06;;;;;;;29.83;28.13;;;;;;;;;;5051616;28;20430;-77
2023/10/26 12:15:33;;;;;;;30.33;28.60;;;;;;;;;;5050653;28;21135;-78
2023/10/26 12:18:00;;;;;;;29.13;27.53;;;;;;;;;;5051161;28;20566;-77
2023/10/26 12:20:27;;;;;;;29.53;27.83;;;;;;;;;;5051095;28;20946;-77
2023/10/26 12:22:54;;;;;;;35.60;33.30;;;;;;;;;;5051449;28;20450;-77
2023/10/26 12:25:23;;;;;;;30.90;29.10;;;;;;;;;;5050745;28;20991;-76
2023/10/26 12:27:50;;;;;;;33.67;31.43;;;;;;;;;;5050849;28;20481;-77
2023/10/26 12:30:17;;;;;;;29.60;27.90;;;;;;;;;;5051108;28;20457;-77
2023/10/26 12:32:44;;;;;;;29.47;27.70;;;;;;;;;;5051343;28;20454;-77
2023/10/26 12:35:11;;;;;;;29.80;27.90;;;;;;;;;;5050558;28;20450;-77
2023/10/26 12:37:38;;;;;;;28.70;27.10;;;;;;;;;;5050934;28;20467;-76
2023/10/26 12:40:08;;;;;;;27.20;25.70;;;;;;;;;;5050346;28;20496;-77
2023/10/26 12:42:36;;;;;;;32.80;30.80;;;;;;;;;;5052922;28;20517;-79
2023/10/26 12:45:03;;;;;;;27.33;25.83;;;;;;;;;;5056717;28;20453;-80
2023/10/26 12:47:30;;;;;;;29.83;27.93;;;;;;;;;;5056748;28;20482;-80
2023/10/26 12:49:57;;;;;;;30.40;28.53;;;;;;;;;;5064989;28;20451;-80
2023/10/26 12:52:24;;;;;;;37.30;34.40;;;;;;;;;;5049652;28;20672;-79
2023/10/26 12:54:51;;;;;;;34.60;32.30;;;;;;;;;;5050868;28;20453;-79
2023/10/26 12:57:18;;;;;;;31.63;29.63;;;;;;;;;;5059572;28;20461;-80
2023/10/26 12:59:47;;;;;;;28.40;26.70;;;;;;;;;;5071929;28;20816;-79
2023/10/26 13:02:14;;;;;;;30.20;28.30;;;;;;;;;;5071524;28;20486;-79
2023/10/26 13:04:41;;;;;;;29.70;28.00;;;;;;;;;;5070876;28;20442;-79
2023/10/26 13:07:08;;;;;;;28.97;27.30;;;;;;;;;;5071795;28;20492;-79
2023/10/26 13:09:35;;;;;;;28.00;26.40;;;;;;;;;;5071703;28;20442;-79
2023/10/26 13:12:02;;;;;;;28.70;27.10;;;;;;;;;;5070237;28;20464;-79
2023/10/26 13:14:29;;;;;;;27.20;25.50;;;;;;;;;;5070783;28;20516;-78
2023/10/26 13:16:58;;;;;;;27.80;26.10;;;;;;;;;;5071748;28;20515;-79
2023/10/26 13:19:27;;;;;;;29.50;27.80;;;;;;;;;;5071730;28;20458;-79
2023/10/26 13:21:54;;;;;;;29.27;27.57;;;;;;;;;;5071034;28;20737;-80
2023/10/26 13:24:21;;;;;;;33.93;31.77;;;;;;;;;;5069889;28;20535;-79
2023/10/26 13:26:48;;;;;;;31.87;29.77;;;;;;;;;;5072181;28;20470;-79
2023/10/26 13:29:15;;;;;;;29.90;28.10;;;;;;;;;;5071290;28;20969;-79
2023/10/26 13:31:42;;;;;;;31.53;29.63;;;;;;;;;;5070740;28;20424;-78
2023/10/26 13:34:10;;;;;;;29.87;28.07;;;;;;;;;;5072234;28;20473;-79
2023/10/26 13:36:37;;;;;;;33.07;30.87;;;;;;;;;;5072578;28;20934;-80
2023/10/26 13:39:04;;;;;;;32.80;30.67;;;;;;;;;;5072632;28;20428;-79
2023/10/26 13:41:31;;;;;;;31.10;29.20;;;;;;;;;;5071607;28;20581;-80
2023/10/26 13:43:59;;;;;;;30.53;28.73;;;;;;;;;;5072121;28;20772;-79
2023/10/26 13:46:26;;;;;;;29.57;27.80;;;;;;;;;;5071834;28;20449;-79
2023/10/26 13:48:53;;;;;;;31.10;29.10;;;;;;;;;;5072349;28;20446;-80
2023/10/26 13:51:21;;;;;;;31.93;30.10;;;;;;;;;;5072770;28;20445;-79
2023/10/26 13:53:48;;;;;;;31.97;30.00;;;;;;;;;;5073206;28;20447;-80
2023/10/26 13:56:15;;;;;;;29.60;27.90;;;;;;;;;;5073993;28;20446;-79
2023/10/26 13:58:42;;;;;;;29.70;28.00;;;;;;;;;;5075715;28;20472;-85
2023/10/26 14:01:12;;;;;;;30.60;28.80;;;;;;;;;;5078416;28;20452;-82
2023/10/26 14:03:39;;;;;;;33.80;31.80;;;;;;;;;;5073899;28;20528;-85
2023/10/26 14:06:07;;;;;;;32.37;30.47;;;;;;;;;;5077941;28;20453;-79
2023/10/26 14:08:36;;;;;;;33.77;31.77;;;;;;;;;;5074016;28;20470;-79
2023/10/26 14:11:03;;;;;;;36.03;33.63;;;;;;;;;;5072273;28;20467;-78
2023/10/26 14:13:30;;;;;;;30.50;28.77;;;;;;;;;;5070862;28;20453;-77
2023/10/26 14:15:57;;;;;;;30.10;28.40;;;;;;;;;;5061374;28;20420;-77
2023/10/26 14:18:24;;;;;;;32.67;30.57;;;;;;;;;;5052610;28;20945;-78
2023/10/26 14:20:51;;;;;;;30.03;28.13;;;;;;;;;;5052422;28;20498;-79